Time;durP1;ratioP1;P1;durP2;ratioP2;P2;SDS_P1;SDS_P2;PMS_P1;PMS_P2;Temp;Humidity;BMP_temperature;BMP_pressure;BME280_temperature;BME280_humidity;BME280_pressure;Samples;Min_cycle;Max_cycle;Signal;HPM_P1;HPM_P2
2022/01/09 00:00:14;;;;;;;2.13;1.83;;;;;;;3.11;78.74;98754.88;5071578;22;20649;-78
2022/01/09 00:02:41;;;;;;;2.40;2.20;;;;;;;3.14;78.62;98751.41;5069790;28;20205;-78
2022/01/09 00:05:10;;;;;;;2.70;1.70;;;;;;;3.14;78.65;98751.41;5074228;28;20201;-77
2022/01/09 00:07:36;;;;;;;2.10;1.97;;;;;;;3.21;78.77;98749.56;5075064;28;20250;-78
2022/01/09 00:10:04;;;;;;;3.03;2.03;;;;;;;3.20;78.61;98753.03;5080299;28;20797;-79
2022/01/09 00:12:30;;;;;;;1.80;1.70;;;;;;;3.14;78.63;98739.34;5097167;28;20213;-80
2022/01/09 00:14:56;;;;;;;1.80;1.70;;;;;;;3.03;78.19;98738.66;5096041;28;20223;-77
2022/01/09 00:17:23;;;;;;;1.87;1.70;;;;;;;3.07;78.89;98731.75;5098017;28;20200;-79
2022/01/09 00:19:49;;;;;;;2.30;1.93;;;;;;;3.03;78.85;98723.19;5097315;28;20228;-79
2022/01/09 00:22:27;;;;;;;1.70;1.60;;;;;;;3.00;79.14;98712.97;5099966;28;20204;-80
2022/01/09 00:24:53;;;;;;;2.93;2.20;;;;;;;2.92;79.40;98701.94;5099668;28;20298;-79
2022/01/09 00:27:20;;;;;;;2.80;2.20;;;;;;;2.91;79.53;98688.16;5099478;28;20204;-80
2022/01/09 00:29:47;;;;;;;2.90;1.80;;;;;;;2.94;80.01;98677.81;5101951;28;20295;-80
2022/01/09 00:32:13;;;;;;;2.10;2.00;;;;;;;2.84;79.40;98678.00;5102030;28;20249;-80
2022/01/09 00:34:46;;;;;;;2.30;2.10;;;;;;;2.90;79.77;98670.19;5099129;28;20735;-79
2022/01/09 00:37:12;;;;;;;3.27;2.10;;;;;;;2.90;79.22;98678.75;5098067;28;20287;-79
2022/01/09 00:39:40;;;;;;;1.80;1.70;;;;;;;2.92;79.51;98669.28;5099092;28;20230;-79
2022/01/09 00:42:06;;;;;;;1.73;1.63;;;;;;;2.98;79.38;98653.69;5100199;28;20253;-79
2022/01/09 00:44:33;;;;;;;2.13;2.00;;;;;;;3.00;79.72;98653.69;5100107;28;20208;-79
2022/01/09 00:47:00;;;;;;;3.03;2.00;;;;;;;3.04;79.84;98652.75;5100008;28;20204;-79
2022/01/09 00:49:26;;;;;;;2.33;2.03;;;;;;;3.07;79.20;98644.09;5099039;28;20203;-80
2022/01/09 00:51:53;;;;;;;2.73;2.27;;;;;;;2.96;78.89;98646.88;5100546;28;20225;-79
2022/01/09 00:54:19;;;;;;;2.30;2.10;;;;;;;3.07;79.34;98623.47;5099568;28;20681;-79
2022/01/09 00:56:47;;;;;;;2.00;1.90;;;;;;;3.03;79.66;98629.56;5101054;28;20709;-79
2022/01/09 00:59:13;;;;;;;2.40;2.20;;;;;;;3.05;79.61;98626.06;5101024;28;20212;-79
2022/01/09 01:01:42;;;;;;;1.83;1.73;;;;;;;2.82;80.20;98630.81;5104111;28;20715;-79
2022/01/09 01:04:09;;;;;;;2.10;1.90;;;;;;;2.86;80.36;98610.09;5104263;28;20735;-79
2022/01/09 01:06:35;;;;;;;1.87;1.77;;;;;;;2.76;81.01;98604.25;5106190;28;20219;-79
2022/01/09 01:09:02;;;;;;;2.00;1.87;;;;;;;2.71;81.13;98593.16;5106121;28;20266;-79
2022/01/09 01:11:30;;;;;;;2.30;2.10;;;;;;;2.71;81.11;98579.44;5105414;28;20228;-79
2022/01/09 01:13:58;;;;;;;2.23;2.03;;;;;;;2.78;80.97;98573.31;5107183;28;20218;-79
2022/01/09 01:16:24;;;;;;;1.97;1.70;;;;;;;2.86;80.47;98579.19;5114404;28;20239;-80
2022/01/09 01:18:54;;;;;;;2.10;2.00;;;;;;;2.89;80.93;98567.97;5102826;28;20262;-79
2022/01/09 01:21:23;;;;;;;2.27;2.00;;;;;;;2.80;81.75;98561.25;5098192;28;20248;-79
2022/01/09 01:23:49;;;;;;;2.20;2.00;;;;;;;2.84;81.42;98559.50;5099286;28;20230;-79
2022/01/09 01:26:15;;;;;;;1.77;1.67;;;;;;;2.87;81.35;98556.84;5099030;28;20204;-79
2022/01/09 01:28:42;;;;;;;2.17;1.97;;;;;;;2.81;81.05;98551.81;5099603;28;20204;-79
2022/01/09 01:31:12;;;;;;;2.83;2.10;;;;;;;2.84;80.63;98547.44;5100644;28;20246;-78
2022/01/09 01:33:39;;;;;;;1.90;1.80;;;;;;;2.87;80.98;98552.53;5099280;28;20197;-79
2022/01/09 01:36:05;;;;;;;1.93;1.80;;;;;;;2.87;81.16;98536.22;5097398;28;20235;-79
2022/01/09 01:38:32;;;;;;;2.10;1.90;;;;;;;2.87;81.23;98528.50;5098384;28;20676;-79
2022/01/09 01:40:59;;;;;;;1.90;1.80;;;;;;;2.76;80.87;98533.84;5096749;28;20306;-79
2022/01/09 01:43:26;;;;;;;2.27;1.90;;;;;;;2.83;81.56;98522.53;5097664;28;20200;-79
2022/01/09 01:45:53;;;;;;;1.60;1.50;;;;;;;2.85;81.29;98522.53;5098443;28;20681;-79
2022/01/09 01:48:20;;;;;;;1.57;1.43;;;;;;;2.86;81.58;98527.66;5098681;28;20204;-79
2022/01/09 01:50:48;;;;;;;2.03;1.83;;;;;;;2.90;80.89;98520.72;5097257;28;20253;-79
2022/01/09 01:53:18;;;;;;;1.90;1.47;;;;;;;2.89;80.94;98519.84;5098466;28;20208;-79
2022/01/09 01:55:48;;;;;;;1.37;1.23;;;;;;;2.99;81.48;98505.06;5098723;28;20263;-79
2022/01/09 01:58:14;;;;;;;3.13;1.70;;;;;;;2.98;81.14;98499.06;5098222;28;20204;-79
2022/01/09 02:00:42;;;;;;;1.77;1.67;;;;;;;3.00;81.31;98506.78;5101433;28;20233;-79
2022/01/09 02:03:09;;;;;;;1.73;1.63;;;;;;;2.94;81.15;98507.75;5097792;28;20196;-79
2022/01/09 02:05:37;;;;;;;1.60;1.50;;;;;;;2.89;81.34;98503.53;5098015;28;20207;-79
2022/01/09 02:08:05;;;;;;;1.60;1.50;;;;;;;3.01;81.73;98487.00;5098813;28;20241;-79
2022/01/09 02:10:32;;;;;;;1.80;1.70;;;;;;;3.04;81.91;98474.91;5097322;28;20277;-79
2022/01/09 02:12:59;;;;;;;1.47;1.37;;;;;;;3.05;81.92;98479.16;5098486;28;20232;-79
2022/01/09 02:15:27;;;;;;;1.40;1.30;;;;;;;2.94;81.56;98478.56;5098235;28;20231;-79
2022/01/09 02:17:54;;;;;;;2.13;1.90;;;;;;;2.81;81.91;98459.06;5095889;28;20208;-80
2022/01/09 02:20:22;;;;;;;2.50;1.63;;;;;;;2.92;82.58;98450.22;5096696;28;20216;-80
2022/01/09 02:22:48;;;;;;;2.40;1.80;;;;;;;3.01;82.03;98444.03;5098036;28;20237;-80
2022/01/09 02:25:15;;;;;;;1.83;1.50;;;;;;;2.92;82.55;98433.94;5098578;28;20720;-79
2022/01/09 02:27:42;;;;;;;2.00;1.90;;;;;;;2.91;82.69;98416.75;5098031;28;20226;-80
2022/01/09 02:30:10;;;;;;;1.40;1.30;;;;;;;2.90;83.08;98425.38;5102600;28;20280;-79
2022/01/09 02:32:37;;;;;;;2.97;1.80;;;;;;;2.87;83.45;98400.50;5098342;28;20208;-79
2022/01/09 02:35:04;;;;;;;1.53;1.40;;;;;;;2.89;83.40;98395.31;5096526;28;20250;-78
2022/01/09 02:37:31;;;;;;;1.70;1.60;;;;;;;2.83;83.84;98390.31;5095358;28;20208;-79
2022/01/09 02:39:58;;;;;;;2.23;1.50;;;;;;;2.75;84.45;98375.84;5096067;28;20227;-80
2022/01/09 02:42:27;;;;;;;1.70;1.60;;;;;;;2.71;84.96;98365.63;5096446;28;20200;-78
2022/01/09 02:44:55;;;;;;;1.80;1.70;;;;;;;2.75;85.10;98352.66;5096345;28;20318;-79
2022/01/09 02:47:21;;;;;;;2.07;1.40;;;;;;;2.85;85.00;98347.31;5095384;28;20200;-78
2022/01/09 02:49:51;;;;;;;1.47;1.37;;;;;;;2.86;84.32;98352.44;5095463;28;20232;-78
2022/01/09 02:52:29;;;;;;;2.23;1.60;;;;;;;2.86;84.43;98347.28;5096463;28;20214;-78
2022/01/09 02:55:11;;;;;;;2.50;1.87;;;;;;;2.90;84.62;98341.19;5098257;28;20200;-79
2022/01/09 02:57:40;;;;;;;1.87;1.70;;;;;;;2.87;84.30;98345.56;5100162;28;20225;-79
2022/01/09 03:00:08;;;;;;;1.50;1.40;;;;;;;2.85;84.08;98340.44;5103419;28;20242;-79
2022/01/09 03:02:35;;;;;;;1.67;1.57;;;;;;;2.81;84.63;98340.53;5099462;28;20196;-79
2022/01/09 03:05:01;;;;;;;1.63;1.53;;;;;;;2.87;85.27;98328.34;5100134;28;20226;-79
2022/01/09 03:07:28;;;;;;;1.80;1.70;;;;;;;2.91;85.12;98327.41;5099542;28;20301;-78
2022/01/09 03:09:54;;;;;;;1.40;1.37;;;;;;;2.95;85.29;98331.66;5099815;28;20250;-78
2022/01/09 03:12:23;;;;;;;1.83;1.57;;;;;;;2.98;85.24;98321.25;5100031;28;20256;-79
2022/01/09 03:14:50;;;;;;;1.60;1.50;;;;;;;2.87;85.04;98328.34;5100053;28;20208;-79
2022/01/09 03:17:16;;;;;;;1.67;1.57;;;;;;;2.93;85.42;98309.34;5099846;28;20227;-78
2022/01/09 03:19:43;;;;;;;1.70;1.60;;;;;;;2.91;84.62;98317.09;5098800;28;20228;-78
2022/01/09 03:22:09;;;;;;;1.30;1.20;;;;;;;3.00;85.89;98310.06;5099924;28;20252;-78
2022/01/09 03:24:36;;;;;;;2.53;1.43;;;;;;;3.04;85.26;98303.97;5100219;28;20261;-78
2022/01/09 03:27:02;;;;;;;1.57;1.47;;;;;;;3.01;85.03;98312.59;5100258;28;20204;-79
2022/01/09 03:29:30;;;;;;;1.30;1.30;;;;;;;3.06;84.68;98304.78;5098620;28;20555;-78
2022/01/09 03:31:56;;;;;;;1.50;1.40;;;;;;;3.03;84.96;98308.25;5103452;28;20212;-78
2022/01/09 03:34:23;;;;;;;1.23;1.23;;;;;;;3.12;84.77;98312.38;5100043;28;20251;-78
2022/01/09 03:36:49;;;;;;;1.67;1.57;;;;;;;3.17;84.63;98315.66;5100629;28;20254;-79
2022/01/09 03:39:16;;;;;;;1.40;1.30;;;;;;;3.19;84.55;98321.63;5099647;28;20208;-80
2022/01/09 03:41:42;;;;;;;1.40;1.30;;;;;;;3.20;84.06;98336.22;5098822;28;20224;-79
2022/01/09 03:44:09;;;;;;;1.60;1.50;;;;;;;3.28;84.13;98339.47;5099013;28;20238;-79
2022/01/09 03:46:36;;;;;;;1.33;1.30;;;;;;;3.24;83.87;98347.31;5099251;28;20222;-78
2022/01/09 03:49:03;;;;;;;1.30;1.20;;;;;;;3.29;83.96;98351.50;5100145;28;20200;-78
2022/01/09 03:51:33;;;;;;;1.40;1.30;;;;;;;3.35;83.89;98355.63;5099738;28;20293;-78
2022/01/09 03:54:00;;;;;;;1.40;1.30;;;;;;;3.48;83.38;98356.22;5100258;28;20203;-78
2022/01/09 03:56:28;;;;;;;3.37;1.20;;;;;;;3.25;83.67;98364.47;5099722;28;20236;-79
2022/01/09 03:58:55;;;;;;;1.30;1.20;;;;;;;3.35;84.12;98359.09;5100304;28;20296;-79
2022/01/09 04:01:21;;;;;;;1.67;1.57;;;;;;;3.36;84.11;98344.44;5110760;28;20232;-79
2022/01/09 04:03:50;;;;;;;1.40;1.30;;;;;;;3.40;83.74;98358.13;5100722;28;20200;-79
2022/01/09 04:06:16;;;;;;;1.20;1.20;;;;;;;3.38;83.43;98374.47;5098858;28;20200;-79
2022/01/09 04:08:44;;;;;;;1.30;1.20;;;;;;;3.37;82.96;98374.53;5099456;28;20258;-79
2022/01/09 04:11:22;;;;;;;1.10;1.10;;;;;;;3.34;83.58;98372.00;5099530;28;20256;-79
2022/01/09 04:13:49;;;;;;;1.40;1.30;;;;;;;3.39;84.06;98375.34;5099965;28;20214;-79
2022/01/09 04:16:15;;;;;;;1.33;1.20;;;;;;;3.43;83.72;98364.06;5099405;28;20245;-78
2022/01/09 04:18:42;;;;;;;1.10;1.10;;;;;;;3.48;83.66;98371.69;5098895;28;20246;-78
2022/01/09 04:21:09;;;;;;;2.00;1.20;;;;;;;3.56;83.27;98372.34;5097769;28;20216;-80
2022/01/09 04:23:36;;;;;;;1.30;1.20;;;;;;;3.55;83.43;98379.25;5095537;28;20193;-78
2022/01/09 04:26:02;;;;;;;1.23;1.10;;;;;;;3.43;83.39;98373.50;5095690;28;20246;-79
2022/01/09 04:28:28;;;;;;;1.07;1.07;;;;;;;3.35;83.79;98371.09;5097255;28;20247;-79
2022/01/09 04:30:55;;;;;;;1.13;1.13;;;;;;;3.20;84.94;98354.28;5099719;28;20725;-78
2022/01/09 04:33:21;;;;;;;1.00;1.00;;;;;;;3.23;84.78;98338.75;5094946;28;20222;-79
2022/01/09 04:35:48;;;;;;;1.07;1.07;;;;;;;3.33;85.23;98339.34;5095638;28;20196;-79
2022/01/09 04:38:18;;;;;;;1.40;1.30;;;;;;;3.37;85.72;98323.78;5096254;28;20196;-78
2022/01/09 04:40:44;;;;;;;1.40;1.30;;;;;;;3.35;85.63;98322.97;5094969;28;20235;-78
2022/01/09 04:43:12;;;;;;;1.10;1.10;;;;;;;3.37;85.96;98323.78;5096052;28;20202;-79
2022/01/09 04:45:39;;;;;;;1.30;1.20;;;;;;;3.28;85.29;98324.00;5096826;28;20204;-80
2022/01/09 04:48:08;;;;;;;1.20;1.10;;;;;;;3.34;85.76;98323.00;5096176;28;20609;-79
2022/01/09 04:50:37;;;;;;;1.20;1.10;;;;;;;3.43;85.72;98325.38;5095470;28;20212;-79
2022/01/09 04:53:06;;;;;;;1.40;1.30;;;;;;;3.36;85.73;98334.13;5096882;28;20212;-79
2022/01/09 04:55:36;;;;;;;1.30;1.20;;;;;;;3.42;85.44;98333.16;5094029;28;20196;-79
2022/01/09 04:58:03;;;;;;;1.10;1.10;;;;;;;3.43;85.43;98337.41;5096163;28;20742;-79
2022/01/09 05:00:30;;;;;;;1.10;1.10;;;;;;;3.47;85.01;98345.06;5094783;28;20246;-79
2022/01/09 05:02:57;;;;;;;1.13;1.07;;;;;;;3.40;85.45;98345.22;5095798;28;20717;-78
2022/01/09 05:05:24;;;;;;;1.30;1.20;;;;;;;3.33;85.35;98341.94;5095597;28;20242;-79
2022/01/09 05:07:50;;;;;;;1.13;1.10;;;;;;;3.35;85.94;98345.31;5092974;28;20255;-79
2022/01/09 05:10:20;;;;;;;1.63;1.20;;;;;;;3.30;86.00;98329.97;5096712;28;20218;-78
2022/01/09 05:12:47;;;;;;;1.33;1.30;;;;;;;3.32;86.13;98317.03;5103499;28;20207;-78
2022/01/09 05:15:16;;;;;;;1.30;1.20;;;;;;;3.28;86.64;98321.41;5105291;28;20200;-78
2022/01/09 05:17:42;;;;;;;1.10;1.10;;;;;;;3.28;86.34;98326.56;5104620;28;20224;-78
2022/01/09 05:20:10;;;;;;;1.10;1.10;;;;;;;3.29;86.39;98335.16;5104139;28;20219;-78
2022/01/09 05:22:36;;;;;;;1.30;1.20;;;;;;;3.32;86.61;98324.78;5103389;28;20204;-78
2022/01/09 05:25:06;;;;;;;1.03;1.03;;;;;;;3.30;86.97;98324.81;5096719;28;20200;-79
2022/01/09 05:27:33;;;;;;;1.60;1.50;;;;;;;3.37;86.81;98322.94;5093934;28;20259;-78
2022/01/09 05:30:04;;;;;;;0.93;0.93;;;;;;;3.38;86.67;98328.06;5097288;28;20284;-79
2022/01/09 05:32:31;;;;;;;1.03;1.03;;;;;;;3.23;87.21;98322.41;5091052;28;20256;-79
2022/01/09 05:34:57;;;;;;;1.10;1.10;;;;;;;3.31;87.60;98320.50;5095874;28;20201;-79
2022/01/09 05:37:23;;;;;;;1.10;1.10;;;;;;;3.33;87.84;98319.59;5095804;28;20261;-79
2022/01/09 05:39:52;;;;;;;1.10;1.10;;;;;;;3.37;87.53;98305.75;5091772;28;20258;-79
2022/01/09 05:42:20;;;;;;;1.00;1.00;;;;;;;3.45;87.50;98307.25;5095591;28;20208;-78
2022/01/09 05:44:47;;;;;;;1.53;1.43;;;;;;;3.45;87.39;98309.84;5094866;28;20207;-78
2022/01/09 05:47:15;;;;;;;1.40;0.90;;;;;;;3.45;86.71;98327.91;5097815;28;20200;-79
2022/01/09 05:49:41;;;;;;;1.10;1.10;;;;;;;3.44;86.96;98337.38;5098102;28;20213;-79
2022/01/09 05:52:08;;;;;;;1.00;1.00;;;;;;;3.53;86.34;98339.75;5099304;28;20615;-79
2022/01/09 05:54:34;;;;;;;1.37;1.00;;;;;;;3.43;86.23;98348.59;5098893;28;20203;-79
2022/01/09 05:57:00;;;;;;;0.90;0.90;;;;;;;3.17;86.78;98352.63;5098309;28;20224;-80
2022/01/09 05:59:27;;;;;;;1.07;1.00;;;;;;;3.22;87.41;98337.03;5097435;28;20337;-79
2022/01/09 06:01:55;;;;;;;0.87;0.87;;;;;;;3.28;87.56;98324.00;5102213;28;20204;-80
2022/01/09 06:04:23;;;;;;;0.83;0.83;;;;;;;3.29;87.18;98330.00;5107398;22;20989;-80
2022/01/09 06:06:51;;;;;;;0.80;0.80;;;;;;;3.36;87.46;98332.41;5070956;28;20701;-81
2022/01/09 06:09:21;;;;;;;0.97;0.97;;;;;;;3.47;87.08;98339.03;5060010;28;20213;-80
2022/01/09 06:11:49;;;;;;;0.90;0.90;;;;;;;3.51;86.97;98351.81;5055593;28;20212;-80
2022/01/09 06:14:15;;;;;;;0.93;0.93;;;;;;;3.32;87.28;98340.25;5055834;28;20233;-80
2022/01/09 06:16:41;;;;;;;1.07;0.90;;;;;;;3.36;87.80;98339.28;5063380;28;20221;-80
2022/01/09 06:19:11;;;;;;;1.00;1.00;;;;;;;3.40;88.04;98335.75;5076019;28;20213;-80
2022/01/09 06:21:42;;;;;;;1.10;1.00;;;;;;;3.46;88.01;98339.94;5075661;28;20205;-80
2022/01/09 06:24:13;;;;;;;1.07;1.07;;;;;;;3.49;87.77;98348.44;5061356;28;20656;-80
2022/01/09 06:26:39;;;;;;;0.70;0.70;;;;;;;3.55;87.31;98352.59;5055576;28;20236;-80
2022/01/09 06:29:05;;;;;;;0.90;0.90;;;;;;;3.53;87.31;98365.53;5055329;28;20215;-80
2022/01/09 06:31:33;;;;;;;0.80;0.80;;;;;;;3.49;87.26;98360.47;5058741;28;20205;-80
2022/01/09 06:34:00;;;;;;;0.80;0.80;;;;;;;3.45;87.68;98357.13;5062026;28;20225;-80
2022/01/09 06:36:26;;;;;;;0.87;0.87;;;;;;;3.32;87.80;98351.41;5065941;28;20254;-80
2022/01/09 06:38:54;;;;;;;0.80;0.80;;;;;;;3.38;87.90;98356.41;5069476;28;20196;-80
2022/01/09 06:41:20;;;;;;;0.73;0.73;;;;;;;3.45;87.57;98362.28;5073223;28;20258;-81
2022/01/09 06:43:46;;;;;;;0.70;0.70;;;;;;;3.33;87.95;98371.16;5063080;28;20189;-80
2022/01/09 06:46:13;;;;;;;0.90;0.80;;;;;;;3.40;87.88;98369.28;5063146;28;20231;-80
2022/01/09 06:48:42;;;;;;;0.90;0.73;;;;;;;3.34;88.73;98362.53;5058447;28;20239;-81
2022/01/09 06:51:10;;;;;;;0.70;0.70;;;;;;;3.29;89.18;98354.06;5065862;28;20212;-80
2022/01/09 06:53:36;;;;;;;0.60;0.60;;;;;;;3.32;89.45;98337.69;5065939;28;20200;-80
2022/01/09 06:56:05;;;;;;;0.80;0.80;;;;;;;3.37;89.14;98338.44;5066427;28;20634;-80
2022/01/09 06:58:36;;;;;;;0.60;0.60;;;;;;;3.17;89.54;98339.72;5056093;28;20283;-81
2022/01/09 07:01:03;;;;;;;0.70;0.70;;;;;;;3.14;89.92;98337.22;5060600;28;20659;-80
2022/01/09 07:03:35;;;;;;;0.73;0.73;;;;;;;3.07;90.04;98321.91;5074674;28;20224;-80
2022/01/09 07:06:05;;;;;;;0.70;0.70;;;;;;;3.08;90.41;98324.47;5070087;28;20236;-80
2022/01/09 07:08:37;;;;;;;0.90;0.90;;;;;;;2.87;90.33;98319.78;5072544;28;20204;-80
2022/01/09 07:11:07;;;;;;;1.10;1.10;;;;;;;2.86;90.86;98306.06;5068349;28;20201;-80
2022/01/09 07:13:34;;;;;;;1.10;1.10;;;;;;;2.84;91.26;98304.41;5065529;28;20205;-80
2022/01/09 07:16:00;;;;;;;0.93;0.93;;;;;;;2.85;91.37;98298.38;5066632;28;20225;-80
2022/01/09 07:18:27;;;;;;;0.90;0.90;;;;;;;2.80;91.33;98307.94;5073216;28;20216;-81
2022/01/09 07:20:55;;;;;;;1.00;1.00;;;;;;;2.83;91.56;98300.97;5066039;28;20231;-80
2022/01/09 07:23:21;;;;;;;1.40;1.30;;;;;;;2.79;92.25;98296.78;5074480;28;20205;-80
2022/01/09 07:25:48;;;;;;;1.00;1.00;;;;;;;2.85;91.83;98300.94;5066431;28;20228;-80
2022/01/09 07:28:18;;;;;;;0.90;0.90;;;;;;;2.94;92.17;98314.47;5073949;28;20674;-81
2022/01/09 07:30:46;;;;;;;1.40;1.30;;;;;;;2.84;92.08;98317.28;5062922;28;20246;-80
2022/01/09 07:33:13;;;;;;;1.00;1.00;;;;;;;2.93;92.04;98319.66;5062648;28;20209;-80
2022/01/09 07:35:39;;;;;;;1.10;1.10;;;;;;;2.89;91.53;98326.59;5067174;28;20702;-81
2022/01/09 07:38:10;;;;;;;1.97;1.30;;;;;;;2.94;91.78;98323.94;5074814;28;20761;-81
2022/01/09 07:40:40;;;;;;;1.10;1.10;;;;;;;2.96;91.71;98338.47;5065744;28;20270;-81
2022/01/09 07:43:12;;;;;;;1.37;1.10;;;;;;;2.95;91.67;98339.38;5070443;28;20265;-81
2022/01/09 07:45:42;;;;;;;1.97;1.20;;;;;;;2.84;91.92;98346.47;5077497;28;20289;-81
2022/01/09 07:48:13;;;;;;;1.00;1.00;;;;;;;2.90;91.67;98348.06;5067003;28;20659;-81
2022/01/09 07:50:43;;;;;;;1.00;1.00;;;;;;;2.95;91.58;98356.53;5065675;28;20660;-81
2022/01/09 07:53:15;;;;;;;1.10;1.10;;;;;;;2.96;90.93;98371.13;5070923;28;20667;-79
2022/01/09 07:55:51;;;;;;;1.00;1.00;;;;;;;3.02;90.77;98378.72;5068802;28;20270;-80
2022/01/09 07:58:18;;;;;;;0.90;0.90;;;;;;;2.92;90.78;98393.53;5073070;28;20213;-80
2022/01/09 08:00:47;;;;;;;1.00;1.00;;;;;;;2.93;90.90;98394.38;5073957;28;20189;-80
2022/01/09 08:03:15;;;;;;;0.80;0.80;;;;;;;2.51;91.55;98392.63;5067661;28;20231;-79
2022/01/09 08:05:42;;;;;;;0.73;0.73;;;;;;;2.64;92.40;98370.09;5076882;28;20237;-80
2022/01/09 08:08:09;;;;;;;0.93;0.93;;;;;;;2.70;92.19;98366.53;5076989;28;20201;-80
2022/01/09 08:10:36;;;;;;;1.10;1.10;;;;;;;2.44;93.47;98367.91;5071813;28;20207;-80
2022/01/09 08:13:02;;;;;;;1.10;1.10;;;;;;;2.57;93.06;98342.75;5073890;28;20288;-79
2022/01/09 08:15:29;;;;;;;1.03;1.03;;;;;;;2.43;93.86;98340.44;5069015;28;20220;-80
2022/01/09 08:17:57;;;;;;;0.90;0.90;;;;;;;2.45;94.04;98328.41;5076300;28;20216;-80
2022/01/09 08:20:31;;;;;;;0.70;0.70;;;;;;;2.48;94.56;98330.91;5076041;28;20205;-80
2022/01/09 08:23:04;;;;;;;0.90;0.90;;;;;;;2.30;95.47;98329.56;5069454;28;20293;-80
2022/01/09 08:25:33;;;;;;;1.17;1.07;;;;;;;2.06;94.97;98319.72;5068462;28;20224;-80
2022/01/09 08:28:03;;;;;;;1.37;1.27;;;;;;;2.24;95.67;98303.06;5068243;28;20277;-80
2022/01/09 08:30:36;;;;;;;0.77;0.77;;;;;;;2.40;95.81;98314.78;5067695;28;20201;-79
2022/01/09 08:33:03;;;;;;;1.30;1.20;;;;;;;2.47;95.69;98326.63;5075672;28;20547;-80
2022/01/09 08:35:34;;;;;;;0.90;0.90;;;;;;;2.53;94.60;98338.53;5071341;28;20632;-80
2022/01/09 08:38:01;;;;;;;0.73;0.73;;;;;;;2.55;94.76;98358.22;5071053;28;20241;-79
2022/01/09 08:40:27;;;;;;;1.00;1.00;;;;;;;2.59;93.67;98375.31;5064855;28;20731;-79
2022/01/09 08:42:55;;;;;;;0.80;0.80;;;;;;;2.50;93.87;98393.53;5076010;28;20270;-80
2022/01/09 08:45:28;;;;;;;0.70;0.70;;;;;;;2.13;93.01;98424.25;5061224;28;20225;-79
2022/01/09 08:47:58;;;;;;;0.87;0.87;;;;;;;1.99;93.30;98427.06;5067789;28;20272;-80
2022/01/09 08:50:31;;;;;;;0.83;0.83;;;;;;;2.16;93.62;98419.91;5068435;28;20240;-79
2022/01/09 08:53:04;;;;;;;0.80;0.80;;;;;;;2.22;92.73;98426.69;5058935;28;20208;-80
2022/01/09 08:55:30;;;;;;;0.70;0.70;;;;;;;2.28;93.08;98446.28;5068920;28;20217;-80
2022/01/09 08:57:57;;;;;;;0.50;0.50;;;;;;;2.33;92.47;98460.78;5064874;28;20229;-80
2022/01/09 09:00:23;;;;;;;0.67;0.50;;;;;;;2.35;91.46;98484.75;5069504;28;20288;-79
2022/01/09 09:02:53;;;;;;;0.40;0.40;;;;;;;2.28;91.69;98497.75;5072731;28;20632;-79
2022/01/09 09:05:26;;;;;;;0.57;0.50;;;;;;;2.38;91.05;98501.91;5073140;28;20240;-79
2022/01/09 09:07:54;;;;;;;0.40;0.40;;;;;;;2.31;91.23;98505.44;5072871;28;20430;-79
2022/01/09 09:10:28;;;;;;;0.40;0.33;;;;;;;2.33;91.22;98501.97;5065574;28;20638;-80
2022/01/09 09:12:57;;;;;;;0.40;0.40;;;;;;;2.44;91.77;98508.66;5073162;28;20623;-80
2022/01/09 09:15:25;;;;;;;0.80;0.40;;;;;;;2.27;91.96;98512.38;5064321;28;20217;-80
2022/01/09 09:17:51;;;;;;;1.07;0.50;;;;;;;2.38;91.84;98502.75;5063741;28;20717;-78
2022/01/09 09:20:17;;;;;;;1.67;0.77;;;;;;;2.42;91.68;98498.41;5056608;28;20200;-79
2022/01/09 09:22:46;;;;;;;0.30;0.30;;;;;;;2.42;92.12;98498.41;5064315;28;20232;-79
2022/01/09 09:25:18;;;;;;;1.27;0.40;;;;;;;2.40;92.28;98500.16;5064057;28;20308;-80
2022/01/09 09:27:48;;;;;;;0.63;0.40;;;;;;;2.44;92.12;98493.19;5075245;28;20194;-79
2022/01/09 09:30:17;;;;;;;0.60;0.60;;;;;;;2.46;92.80;98486.31;5066017;28;20250;-79
2022/01/09 09:32:44;;;;;;;0.50;0.50;;;;;;;2.46;92.45;98492.31;5064105;28;20190;-79
2022/01/09 09:35:11;;;;;;;0.77;0.77;;;;;;;2.42;92.94;98477.81;5070614;28;20225;-79
2022/01/09 09:37:38;;;;;;;1.43;0.80;;;;;;;2.44;93.53;98470.91;5065918;28;20699;-80
2022/01/09 09:40:13;;;;;;;1.10;1.00;;;;;;;2.48;93.66;98467.41;5068600;28;20664;-79
2022/01/09 09:42:43;;;;;;;0.77;0.77;;;;;;;2.52;93.57;98469.03;5063987;28;20193;-80
2022/01/09 09:45:11;;;;;;;0.50;0.50;;;;;;;2.58;93.50;98468.06;5063898;28;20217;-80
2022/01/09 09:47:40;;;;;;;1.10;0.50;;;;;;;2.64;94.04;98477.41;5064329;28;20193;-80
2022/01/09 09:50:08;;;;;;;0.50;0.50;;;;;;;2.57;94.23;98492.13;5068788;28;20201;-79
2022/01/09 09:52:34;;;;;;;0.60;0.50;;;;;;;2.66;94.94;98463.63;5065190;28;20741;-79
2022/01/09 09:55:01;;;;;;;1.77;0.77;;;;;;;2.64;95.61;98451.66;5065969;28;20719;-79
2022/01/09 09:57:34;;;;;;;2.80;0.93;;;;;;;2.70;96.24;98433.50;5067711;28;20205;-79
2022/01/09 10:00:06;;;;;;;2.10;0.83;;;;;;;2.77;96.01;98430.78;5064174;28;20215;-80
2022/01/09 10:02:44;;;;;;;3.07;1.20;;;;;;;2.82;96.56;98422.13;5070399;28;20208;-80
2022/01/09 10:05:12;;;;;;;2.80;1.50;;;;;;;2.88;96.45;98422.00;5070266;28;20236;-80
2022/01/09 10:07:39;;;;;;;5.40;1.87;;;;;;;2.93;96.81;98415.00;5074404;28;20205;-78
2022/01/09 10:10:09;;;;;;;2.80;1.90;;;;;;;2.99;96.74;98404.56;5063933;28;20263;-78
2022/01/09 10:12:38;;;;;;;2.37;1.80;;;;;;;2.94;97.21;98407.25;5060782;28;20729;-79
2022/01/09 10:15:17;;;;;;;;;;;;;;;;;;;;;
2022/01/09 10:17:47;;;;;;;3.27;2.33;;;;;;;3.07;97.93;98391.50;5073815;28;20227;-78
2022/01/09 10:20:15;;;;;;;3.23;2.73;;;;;;;3.12;98.23;98384.53;5054834;28;20240;-78
2022/01/09 10:22:46;;;;;;;5.32;3.35;;;;;;;3.13;98.83;98375.91;5066533;28;20495;-79
2022/01/09 10:25:36;;;;;;;3.33;2.80;;;;;;;3.18;99.00;98384.41;5060072;28;20224;-78
2022/01/09 10:28:06;;;;;;;6.03;4.23;;;;;;;3.13;99.30;98368.16;5068534;28;20255;-77
2022/01/09 10:30:38;;;;;;;7.87;5.97;;;;;;;3.09;100.00;98356.22;5072213;28;20197;-78
2022/01/09 10:33:07;;;;;;;6.13;4.40;;;;;;;3.13;100.00;98348.41;5060336;28;20726;-78
2022/01/09 10:35:37;;;;;;;8.47;4.70;;;;;;;3.23;100.00;98343.03;5080271;28;20227;-79
2022/01/09 10:38:11;;;;;;;8.73;4.33;;;;;;;3.23;100.00;98343.91;5082840;28;20344;-79
2022/01/09 10:40:44;;;;;;;7.63;4.43;;;;;;;3.25;100.00;98328.38;5065604;28;20197;-78
2022/01/09 10:43:16;;;;;;;11.73;5.07;;;;;;;3.33;100.00;98323.88;5084000;28;20627;-79
2022/01/09 10:45:46;;;;;;;16.23;5.90;;;;;;;3.40;100.00;98320.28;5084794;28;20314;-78
2022/01/09 10:48:20;;;;;;;9.80;5.28;;;;;;;3.48;100.00;98320.94;4377088;28;10000745;-78
2022/01/09 10:50:47;;;;;;;9.33;6.30;;;;;;;3.52;100.00;98319.97;5054030;28;20213;-78
2022/01/09 10:53:19;;;;;;;14.67;7.97;;;;;;;3.57;100.00;98332.78;5070446;28;20250;-78
2022/01/09 10:55:47;;;;;;;10.10;6.00;;;;;;;3.58;100.00;98327.56;5062980;28;20235;-78
2022/01/09 10:58:23;;;;;;;16.23;8.17;;;;;;;3.62;100.00;98322.34;5062891;28;20899;-80
2022/01/09 11:01:12;;;;;;;14.30;7.20;;;;;;;3.63;100.00;98335.22;5067275;28;20263;-79
2022/01/09 11:03:39;;;;;;;17.90;6.93;;;;;;;3.62;100.00;98330.91;5063568;28;20205;-78
2022/01/09 11:06:13;;;;;;;12.43;7.20;;;;;;;3.64;100.00;98336.88;5064555;28;20229;-80
2022/01/09 11:08:41;;;;;;;14.47;6.90;;;;;;;3.73;100.00;98343.56;5061841;28;20216;-79
2022/01/09 11:11:17;;;;;;;9.17;7.53;;;;;;;3.67;100.00;98346.31;5069530;28;20212;-78
2022/01/09 11:13:47;;;;;;;13.97;7.83;;;;;;;3.65;100.00;98342.88;5052849;28;21152;-79
2022/01/09 11:16:36;;;;;;;39.03;15.27;;;;;;;3.72;100.00;98345.28;5054308;28;20267;-78
2022/01/09 11:19:05;;;;;;;14.67;5.23;;;;;;;3.76;100.00;98361.53;5062418;28;20609;-79
2022/01/09 11:21:33;;;;;;;14.40;7.27;;;;;;;3.82;100.00;98365.69;5063319;28;20259;-79
2022/01/09 11:24:31;;;;;;;15.30;6.33;;;;;;;3.83;100.00;98378.56;5066196;28;20223;-79
2022/01/09 11:27:01;;;;;;;9.83;5.03;;;;;;;3.93;100.00;98394.69;5064075;28;20208;-79
2022/01/09 11:29:41;;;;;;;4.80;4.20;;;;;;;3.95;100.00;98404.06;5061812;28;20201;-79
2022/01/09 11:32:21;;;;;;;15.07;4.60;;;;;;;4.00;100.00;98414.25;5066210;28;20201;-79
2022/01/09 11:35:09;;;;;;;11.27;4.70;;;;;;;4.04;100.00;98425.38;5072176;28;20228;-81
2022/01/09 11:38:01;;;;;;;12.03;6.83;;;;;;;4.04;100.00;98431.38;5068568;28;20211;-80
2022/01/09 11:40:30;;;;;;;12.57;6.70;;;;;;;4.11;100.00;98442.41;5060490;28;20202;-80
2022/01/09 11:43:05;;;;;;;15.10;7.83;;;;;;;4.12;100.00;98449.25;5067107;28;20208;-79
2022/01/09 11:45:49;;;;;;;14.23;8.00;;;;;;;4.16;100.00;98468.94;5074646;28;20623;-80
2022/01/09 11:48:20;;;;;;;9.83;5.63;;;;;;;4.18;100.00;98474.91;5071553;28;20202;-80